Aeroporto :
LOGIN :

Iscrizione | Disclaimer

   EN    FR    IT 

 










Sommario :    VFR   VFR Marginale   IFR   IFR Intensivo   IFR Molto Intensivo
Visibilità : 
Base nubi : 
>= 8 km
>= 3000ft
5 / 8 km
1000 / 3000 ft
1500m / 5 km
500 / 1000 ft
800 / 1500m
200 / 500 ft
< 800m
< 200 ft
Simboli :   Temporali  Nebbia  Neve Forte  Precipitazioni Forti  Vento > 20 kt
SIGMETs :   Varie  Temporali  Ghiacco  Turbolenza  Onda orograficha  Ceneri Vulcaniche






- Altitudine del aeroporto : 909 ft
- Codice IATA : KSF


EDVK - Kassel Calden

ULTIMO METAR :
  • 181120Z 25004KT 200V300 CAVOK 32/14 Q1014

METARs OBSOLETI :
  • 181050Z VRB03KT CAVOK 32/14 Q1014
  • 181020Z VRB02KT CAVOK 31/13 Q1014
  • 180950Z 25003KT 190V350 CAVOK 31/16 Q1014
  • 180920Z VRB02KT CAVOK 30/16 Q1014
  • 180850Z 13003KT 070V170 CAVOK 29/17 Q1014

TAF TAF EDVK
Valido dal 18 a 09 ore il 18 a 18 ore UTC


180800Z 1809/1818 VRB03KT CAVOK
BECMG 1809/1812 25005KT
PROB40
TEMPO 1811/1818 27020G40KT TSRAGR BKN050CB



MetMap, La meteo Aeronautica in un colpo d'occhio ! - Copyright ORBIFLY Dicembre 2007 - Disclaimer

ORBIFLY MET'MAP TEAM :

Programmazione e sviluppo : Alexandra Zaïnal
Concezione : Baudouin d'Aumeries
Aiuto per la programmazione : Marc-Olivier Méhu
Supporto tecnico e logistico : Manuel Goepfert
Aiuto per la traduzione : Arnaldo La Scala

Contatto : metmap@orbifly.com




FONTI E CREDITI :

   NOAA